sensor_id;sensor_type;location;lat;lon;timestamp;pressure;altitude;pressure_sealevel;temperature;humidity
60427;BME280;46274;47.168;27.604;2022-12-11T00:01:38;98345.22;;;5.00;89.85
60427;BME280;46274;47.168;27.604;2022-12-11T00:07:41;98339.59;;;5.10;89.87
60427;BME280;46274;47.168;27.604;2022-12-11T00:13:43;98310.47;;;4.69;91.33
60427;BME280;46274;47.168;27.604;2022-12-11T00:19:46;98288.19;;;4.68;91.19
60427;BME280;46274;47.168;27.604;2022-12-11T00:25:48;98272.13;;;4.45;92.40
60427;BME280;46274;47.168;27.604;2022-12-11T00:31:53;98279.28;;;4.53;93.49
60427;BME280;46274;47.168;27.604;2022-12-11T00:37:56;98149.91;;;3.83;92.75
60427;BME280;46274;47.168;27.604;2022-12-11T00:43:58;98206.28;;;4.28;91.48
60427;BME280;46274;47.168;27.604;2022-12-11T00:50:01;98262.56;;;4.66;90.90
60427;BME280;46274;47.168;27.604;2022-12-11T00:56:18;98293.75;;;4.81;90.82
60427;BME280;46274;47.168;27.604;2022-12-11T01:02:21;98250.16;;;4.50;91.61
60427;BME280;46274;47.168;27.604;2022-12-11T01:08:26;98275.44;;;4.70;91.37
60427;BME280;46274;47.168;27.604;2022-12-11T01:14:30;98250.09;;;4.73;90.95
60427;BME280;46274;47.168;27.604;2022-12-11T01:20:37;98223.81;;;4.68;90.65
60427;BME280;46274;47.168;27.604;2022-12-11T01:26:42;98218.75;;;4.35;92.06
60427;BME280;46274;47.168;27.604;2022-12-11T01:32:46;98123.69;;;3.93;91.68
60427;BME280;46274;47.168;27.604;2022-12-11T01:38:53;98184.09;;;4.49;90.67
60427;BME280;46274;47.168;27.604;2022-12-11T01:45:21;98202.06;;;4.63;90.51
60427;BME280;46274;47.168;27.604;2022-12-11T01:51:30;98194.56;;;4.58;90.75
60427;BME280;46274;47.168;27.604;2022-12-11T01:57:39;98198.81;;;4.82;89.78
60427;BME280;46274;47.168;27.604;2022-12-11T02:03:44;98154.81;;;4.62;89.88
60427;BME280;46274;47.168;27.604;2022-12-11T02:09:47;98139.16;;;4.36;91.28
60427;BME280;46274;47.168;27.604;2022-12-11T02:28:54;98076.13;;;3.96;92.63
60427;BME280;46274;47.168;27.604;2022-12-11T02:35:09;98110.03;;;4.18;92.62
60427;BME280;46274;47.168;27.604;2022-12-11T02:41:13;98014.41;;;3.59;92.33
60427;BME280;46274;47.168;27.604;2022-12-11T02:47:20;98079.34;;;4.35;91.01
60427;BME280;46274;47.168;27.604;2022-12-11T02:53:32;98058.09;;;4.49;88.90
60427;BME280;46274;47.168;27.604;2022-12-11T02:59:40;98104.41;;;4.57;88.76
60427;BME280;46274;47.168;27.604;2022-12-11T03:05:45;98097.81;;;4.75;89.36
60427;BME280;46274;47.168;27.604;2022-12-11T03:11:48;98099.28;;;4.77;89.20
60427;BME280;46274;47.168;27.604;2022-12-11T03:18:08;98080.34;;;4.64;88.20
60427;BME280;46274;47.168;27.604;2022-12-11T03:24:43;98084.56;;;4.52;89.59
60427;BME280;46274;47.168;27.604;2022-12-11T03:30:52;98076.47;;;5.03;87.33
60427;BME280;46274;47.168;27.604;2022-12-11T03:36:59;98057.66;;;5.03;86.59
60427;BME280;46274;47.168;27.604;2022-12-11T03:43:06;98040.34;;;4.48;88.97
60427;BME280;46274;47.168;27.604;2022-12-11T03:49:20;98029.75;;;4.97;87.09
60427;BME280;46274;47.168;27.604;2022-12-11T03:55:25;98009.03;;;4.70;87.36
60427;BME280;46274;47.168;27.604;2022-12-11T04:01:29;98007.50;;;4.61;88.05
60427;BME280;46274;47.168;27.604;2022-12-11T04:07:38;97980.44;;;4.41;89.46
60427;BME280;46274;47.168;27.604;2022-12-11T04:13:44;97963.72;;;4.38;88.91
60427;BME280;46274;47.168;27.604;2022-12-11T04:19:47;97961.72;;;4.62;88.47
60427;BME280;46274;47.168;27.604;2022-12-11T04:26:15;97883.03;;;3.97;88.72
60427;BME280;46274;47.168;27.604;2022-12-11T04:32:18;97825.69;;;3.91;88.45
60427;BME280;46274;47.168;27.604;2022-12-11T04:38:29;97809.56;;;3.85;87.98
60427;BME280;46274;47.168;27.604;2022-12-11T04:44:37;97854.44;;;4.19;87.77
60427;BME280;46274;47.168;27.604;2022-12-11T04:50:48;97925.81;;;4.63;87.62
60427;BME280;46274;47.168;27.604;2022-12-11T04:56:51;97902.06;;;4.38;87.95
60427;BME280;46274;47.168;27.604;2022-12-11T05:02:55;97888.38;;;4.12;89.91
60427;BME280;46274;47.168;27.604;2022-12-11T05:08:58;97888.66;;;4.38;88.98
60427;BME280;46274;47.168;27.604;2022-12-11T05:15:01;97816.78;;;4.06;88.43
60427;BME280;46274;47.168;27.604;2022-12-11T05:21:09;97873.41;;;4.61;87.17
60427;BME280;46274;47.168;27.604;2022-12-11T05:27:14;97885.09;;;4.53;88.05
60427;BME280;46274;47.168;27.604;2022-12-11T05:33:19;97804.50;;;3.75;89.73
60427;BME280;46274;47.168;27.604;2022-12-11T05:39:21;97864.09;;;4.35;88.58
60427;BME280;46274;47.168;27.604;2022-12-11T05:45:26;97848.56;;;4.09;90.01
60427;BME280;46274;47.168;27.604;2022-12-11T05:51:29;97828.13;;;3.86;91.31
60427;BME280;46274;47.168;27.604;2022-12-11T05:57:38;97830.97;;;4.43;89.42
60427;BME280;46274;47.168;27.604;2022-12-11T06:03:45;97812.44;;;4.48;87.49
60427;BME280;46274;47.168;27.604;2022-12-11T06:09:53;97805.53;;;4.38;88.02
60427;BME280;46274;47.168;27.604;2022-12-11T06:16:06;97828.28;;;4.43;88.06
60427;BME280;46274;47.168;27.604;2022-12-11T06:22:08;97818.06;;;4.53;87.85
60427;BME280;46274;47.168;27.604;2022-12-11T06:28:11;97770.34;;;4.20;87.63
60427;BME280;46274;47.168;27.604;2022-12-11T06:34:18;97804.97;;;4.43;88.17
60427;BME280;46274;47.168;27.604;2022-12-11T06:40:25;97783.25;;;4.31;87.73
60427;BME280;46274;47.168;27.604;2022-12-11T06:46:28;97802.34;;;4.28;88.49
60427;BME280;46274;47.168;27.604;2022-12-11T06:52:32;97800.84;;;4.19;89.12
60427;BME280;46274;47.168;27.604;2022-12-11T06:58:51;97768.81;;;4.11;89.18
60427;BME280;46274;47.168;27.604;2022-12-11T07:04:56;97775.69;;;4.20;89.15
60427;BME280;46274;47.168;27.604;2022-12-11T07:11:09;97774.56;;;4.29;88.55
60427;BME280;46274;47.168;27.604;2022-12-11T07:17:18;97760.66;;;4.19;89.04
60427;BME280;46274;47.168;27.604;2022-12-11T07:23:20;97669.66;;;3.83;88.69
60427;BME280;46274;47.168;27.604;2022-12-11T07:29:38;97742.06;;;4.39;88.60
60427;BME280;46274;47.168;27.604;2022-12-11T07:36:03;97731.75;;;4.43;88.59
60427;BME280;46274;47.168;27.604;2022-12-11T07:42:06;97730.03;;;4.07;89.55
60427;BME280;46274;47.168;27.604;2022-12-11T07:48:08;97726.34;;;4.36;89.08
60427;BME280;46274;47.168;27.604;2022-12-11T07:54:12;97717.09;;;4.38;88.30
60427;BME280;46274;47.168;27.604;2022-12-11T08:00:17;97700.72;;;4.55;87.39
60427;BME280;46274;47.168;27.604;2022-12-11T08:06:24;97713.84;;;4.78;86.81
60427;BME280;46274;47.168;27.604;2022-12-11T08:12:30;97699.69;;;4.56;87.02
60427;BME280;46274;47.168;27.604;2022-12-11T08:18:33;97698.59;;;4.78;86.89
60427;BME280;46274;47.168;27.604;2022-12-11T08:24:39;97706.66;;;4.85;86.74
60427;BME280;46274;47.168;27.604;2022-12-11T08:30:44;97699.47;;;4.92;86.35
60427;BME280;46274;47.168;27.604;2022-12-11T08:36:54;97680.75;;;4.64;87.57
60427;BME280;46274;47.168;27.604;2022-12-11T08:43:10;97681.16;;;4.61;87.58
60427;BME280;46274;47.168;27.604;2022-12-11T08:49:18;97674.53;;;4.57;87.85
60427;BME280;46274;47.168;27.604;2022-12-11T08:55:20;97653.47;;;4.54;87.93
60427;BME280;46274;47.168;27.604;2022-12-11T09:01:30;97640.91;;;4.54;88.55
60427;BME280;46274;47.168;27.604;2022-12-11T09:07:37;97640.84;;;4.48;88.74
60427;BME280;46274;47.168;27.604;2022-12-11T09:13:40;97642.75;;;4.54;88.72
60427;BME280;46274;47.168;27.604;2022-12-11T09:19:49;97632.25;;;4.24;89.64
60427;BME280;46274;47.168;27.604;2022-12-11T09:25:52;97634.31;;;4.57;88.82
60427;BME280;46274;47.168;27.604;2022-12-11T09:31:58;97537.09;;;4.00;88.69
60427;BME280;46274;47.168;27.604;2022-12-11T09:38:04;97593.94;;;4.30;89.37
60427;BME280;46274;47.168;27.604;2022-12-11T09:50:40;97562.50;;;4.11;89.96
60427;BME280;46274;47.168;27.604;2022-12-11T09:57:10;97614.34;;;4.66;89.29
60427;BME280;46274;47.168;27.604;2022-12-11T10:03:43;97592.44;;;4.56;89.29
60427;BME280;46274;47.168;27.604;2022-12-11T10:16:04;97551.78;;;4.52;88.97
60427;BME280;46274;47.168;27.604;2022-12-11T10:22:19;97532.44;;;4.57;89.44
60427;BME280;46274;47.168;27.604;2022-12-11T10:28:28;97566.44;;;4.50;89.74
60427;BME280;46274;47.168;27.604;2022-12-11T10:34:41;97567.38;;;4.84;89.68
60427;BME280;46274;47.168;27.604;2022-12-11T10:40:53;97573.25;;;4.59;90.60
60427;BME280;46274;47.168;27.604;2022-12-11T10:47:04;97563.44;;;4.73;90.34
60427;BME280;46274;47.168;27.604;2022-12-11T10:53:19;97573.78;;;4.89;90.18
60427;BME280;46274;47.168;27.604;2022-12-11T10:59:26;97569.88;;;4.92;90.18
60427;BME280;46274;47.168;27.604;2022-12-11T11:05:34;97563.97;;;4.55;90.73
60427;BME280;46274;47.168;27.604;2022-12-11T11:11:37;97575.56;;;4.62;90.40
60427;BME280;46274;47.168;27.604;2022-12-11T11:17:53;97587.63;;;4.93;90.24
60427;BME280;46274;47.168;27.604;2022-12-11T11:23:59;97499.03;;;4.18;91.26
60427;BME280;46274;47.168;27.604;2022-12-11T11:30:59;97603.72;;;4.86;90.24
60427;BME280;46274;47.168;27.604;2022-12-11T11:36:41;97613.75;;;4.77;90.55
60427;BME280;46274;47.168;27.604;2022-12-11T11:42:51;97623.97;;;5.02;90.22
60427;BME280;46274;47.168;27.604;2022-12-11T11:55:50;97642.72;;;4.95;90.20
60427;BME280;46274;47.168;27.604;2022-12-11T12:01:58;97620.22;;;4.83;89.77
60427;BME280;46274;47.168;27.604;2022-12-11T12:14:23;97644.00;;;4.99;89.99
60427;BME280;46274;47.168;27.604;2022-12-11T12:20:54;97653.41;;;4.75;91.44
60427;BME280;46274;47.168;27.604;2022-12-11T12:27:21;97616.25;;;4.37;90.91
60427;BME280;46274;47.168;27.604;2022-12-11T12:33:52;97684.13;;;4.73;90.58
60427;BME280;46274;47.168;27.604;2022-12-11T12:46:40;97689.66;;;4.71;90.04
60427;BME280;46274;47.168;27.604;2022-12-11T12:52:50;97695.66;;;4.73;90.12
60427;BME280;46274;47.168;27.604;2022-12-11T13:00:02;97720.88;;;4.79;89.73
60427;BME280;46274;47.168;27.604;2022-12-11T13:05:33;97737.47;;;4.61;90.08
60427;BME280;46274;47.168;27.604;2022-12-11T13:11:38;97756.78;;;4.50;89.93
60427;BME280;46274;47.168;27.604;2022-12-11T13:17:41;97776.38;;;4.50;89.65
60427;BME280;46274;47.168;27.604;2022-12-11T13:23:46;97803.00;;;4.30;89.15
60427;BME280;46274;47.168;27.604;2022-12-11T13:36:32;97858.78;;;4.20;88.98
60427;BME280;46274;47.168;27.604;2022-12-11T13:56:06;97718.38;;;3.35;87.63
60427;BME280;46274;47.168;27.604;2022-12-11T14:02:28;97835.59;;;3.91;87.64
60427;BME280;46274;47.168;27.604;2022-12-11T14:08:39;97878.81;;;4.03;87.68
60427;BME280;46274;47.168;27.604;2022-12-11T14:14:59;97876.47;;;4.00;86.99
60427;BME280;46274;47.168;27.604;2022-12-11T14:21:18;97821.53;;;3.38;87.04
60427;BME280;46274;47.168;27.604;2022-12-11T14:27:28;97920.97;;;4.15;86.88
60427;BME280;46274;47.168;27.604;2022-12-11T14:33:42;97942.44;;;4.01;86.15
60427;BME280;46274;47.168;27.604;2022-12-11T14:46:00;97974.03;;;3.61;86.35
60427;BME280;46274;47.168;27.604;2022-12-11T14:52:35;97941.63;;;3.26;85.94
60427;BME280;46274;47.168;27.604;2022-12-11T14:59:04;97997.28;;;3.45;85.88
60427;BME280;46274;47.168;27.604;2022-12-11T15:05:13;98011.56;;;3.90;84.86
60427;BME280;46274;47.168;27.604;2022-12-11T15:11:21;97934.50;;;3.18;85.01
60427;BME280;46274;47.168;27.604;2022-12-11T15:17:41;98001.94;;;3.81;84.33
60427;BME280;46274;47.168;27.604;2022-12-11T15:23:53;98004.41;;;3.53;84.14
60427;BME280;46274;47.168;27.604;2022-12-11T15:30:02;98009.47;;;3.33;84.23
60427;BME280;46274;47.168;27.604;2022-12-11T15:36:32;97998.63;;;3.64;84.09
60427;BME280;46274;47.168;27.604;2022-12-11T15:42:43;97923.09;;;3.01;83.55
60427;BME280;46274;47.168;27.604;2022-12-11T15:48:49;98050.88;;;3.75;82.95
60427;BME280;46274;47.168;27.604;2022-12-11T15:54:52;97998.53;;;2.97;84.59
60427;BME280;46274;47.168;27.604;2022-12-11T16:00:54;98072.00;;;2.86;83.84
60427;BME280;46274;47.168;27.604;2022-12-11T16:07:08;98105.25;;;3.15;83.62
60427;BME280;46274;47.168;27.604;2022-12-11T16:13:28;98091.53;;;3.18;84.09
60427;BME280;46274;47.168;27.604;2022-12-11T16:19:34;98085.59;;;3.08;84.05
60427;BME280;46274;47.168;27.604;2022-12-11T16:25:51;98127.22;;;3.02;84.37
60427;BME280;46274;47.168;27.604;2022-12-11T16:32:05;98116.94;;;2.91;83.78
60427;BME280;46274;47.168;27.604;2022-12-11T16:38:16;98130.66;;;2.88;83.59
60427;BME280;46274;47.168;27.604;2022-12-11T16:44:31;98146.31;;;2.99;83.13
60427;BME280;46274;47.168;27.604;2022-12-11T16:50:53;98149.50;;;2.94;82.46
60427;BME280;46274;47.168;27.604;2022-12-11T16:57:02;98150.28;;;2.72;82.63
60427;BME280;46274;47.168;27.604;2022-12-11T17:03:12;98162.19;;;2.61;82.40
60427;BME280;46274;47.168;27.604;2022-12-11T17:09:14;98153.94;;;2.31;82.98
60427;BME280;46274;47.168;27.604;2022-12-11T17:15:22;98202.84;;;2.48;82.70
60427;BME280;46274;47.168;27.604;2022-12-11T17:21:35;98196.34;;;2.34;82.96
60427;BME280;46274;47.168;27.604;2022-12-11T17:27:54;98191.69;;;2.28;82.47
60427;BME280;46274;47.168;27.604;2022-12-11T17:34:06;98212.72;;;2.31;82.65
60427;BME280;46274;47.168;27.604;2022-12-11T17:40:16;98174.84;;;2.03;82.33
60427;BME280;46274;47.168;27.604;2022-12-11T17:46:44;98015.13;;;0.94;81.44
60427;BME280;46274;47.168;27.604;2022-12-11T17:52:48;98125.47;;;1.25;80.28
60427;BME280;46274;47.168;27.604;2022-12-11T17:58:56;98138.66;;;1.35;79.41
60427;BME280;46274;47.168;27.604;2022-12-11T18:05:03;98194.22;;;1.64;79.91
60427;BME280;46274;47.168;27.604;2022-12-11T18:17:42;98221.88;;;1.39;78.78
60427;BME280;46274;47.168;27.604;2022-12-11T18:23:45;98236.22;;;1.46;79.68
60427;BME280;46274;47.168;27.604;2022-12-11T18:29:48;98242.72;;;1.35;79.27
60427;BME280;46274;47.168;27.604;2022-12-11T18:35:52;98192.25;;;0.91;79.53
60427;BME280;46274;47.168;27.604;2022-12-11T18:42:01;98265.53;;;1.29;79.40
60427;BME280;46274;47.168;27.604;2022-12-11T18:48:25;98259.06;;;1.32;79.83
60427;BME280;46274;47.168;27.604;2022-12-11T18:54:29;98286.59;;;1.49;79.83
60427;BME280;46274;47.168;27.604;2022-12-11T19:00:38;98250.59;;;1.45;80.08
60427;BME280;46274;47.168;27.604;2022-12-11T19:06:41;98251.19;;;1.30;80.50
60427;BME280;46274;47.168;27.604;2022-12-11T19:12:44;98268.16;;;1.21;80.79
60427;BME280;46274;47.168;27.604;2022-12-11T19:18:51;98191.53;;;0.81;80.41
60427;BME280;46274;47.168;27.604;2022-12-11T19:25:19;98244.81;;;1.15;79.30
60427;BME280;46274;47.168;27.604;2022-12-11T19:31:28;98263.47;;;1.07;79.46
60427;BME280;46274;47.168;27.604;2022-12-11T19:37:34;98242.41;;;0.96;78.03
60427;BME280;46274;47.168;27.604;2022-12-11T19:43:50;98265.09;;;1.00;78.33
60427;BME280;46274;47.168;27.604;2022-12-11T19:50:24;98197.84;;;0.46;77.72
60427;BME280;46274;47.168;27.604;2022-12-11T19:56:42;98272.41;;;0.98;78.49
60427;BME280;46274;47.168;27.604;2022-12-11T20:10:30;98014.63;;;-0.80;78.41
60427;BME280;46274;47.168;27.604;2022-12-11T20:17:04;98273.53;;;0.87;78.49
60427;BME280;46274;47.168;27.604;2022-12-11T20:24:04;98168.00;;;0.08;79.31
60427;BME280;46274;47.168;27.604;2022-12-11T20:30:24;98320.97;;;0.75;80.44
60427;BME280;46274;47.168;27.604;2022-12-11T20:42:57;98247.94;;;0.16;81.32
60427;BME280;46274;47.168;27.604;2022-12-11T20:48:59;98326.47;;;0.56;81.57
60427;BME280;46274;47.168;27.604;2022-12-11T20:55:09;98338.59;;;0.50;82.20
60427;BME280;46274;47.168;27.604;2022-12-11T21:01:16;98350.66;;;0.36;83.51
60427;BME280;46274;47.168;27.604;2022-12-11T21:07:21;98260.53;;;-0.30;83.68
60427;BME280;46274;47.168;27.604;2022-12-11T21:13:34;98353.53;;;0.25;83.96
60427;BME280;46274;47.168;27.604;2022-12-11T21:19:40;98392.59;;;0.34;84.37
60427;BME280;46274;47.168;27.604;2022-12-11T21:25:43;98398.03;;;0.15;85.23
60427;BME280;46274;47.168;27.604;2022-12-11T21:31:45;98351.31;;;0.03;84.90
60427;BME280;46274;47.168;27.604;2022-12-11T21:37:49;98399.03;;;0.50;84.55
60427;BME280;46274;47.168;27.604;2022-12-11T21:44:21;98236.19;;;-0.71;84.28
60427;BME280;46274;47.168;27.604;2022-12-11T21:50:44;98412.19;;;0.33;84.95
60427;BME280;46274;47.168;27.604;2022-12-11T21:56:47;98432.09;;;0.39;84.15
60427;BME280;46274;47.168;27.604;2022-12-11T22:02:50;98447.56;;;0.79;83.66
60427;BME280;46274;47.168;27.604;2022-12-11T22:09:00;98436.47;;;0.66;83.68
60427;BME280;46274;47.168;27.604;2022-12-11T22:15:08;98467.31;;;0.86;83.38
60427;BME280;46274;47.168;27.604;2022-12-11T22:21:15;98451.75;;;1.00;82.93
60427;BME280;46274;47.168;27.604;2022-12-11T22:27:18;98399.94;;;0.40;83.49
60427;BME280;46274;47.168;27.604;2022-12-11T22:33:24;98438.88;;;0.95;83.07
60427;BME280;46274;47.168;27.604;2022-12-11T22:39:27;98430.50;;;0.90;83.40
60427;BME280;46274;47.168;27.604;2022-12-11T22:45:31;98404.41;;;0.76;83.11
60427;BME280;46274;47.168;27.604;2022-12-11T22:51:35;98430.13;;;0.85;83.36
60427;BME280;46274;47.168;27.604;2022-12-11T22:57:41;98435.59;;;0.57;84.09
60427;BME280;46274;47.168;27.604;2022-12-11T23:03:46;98422.66;;;0.27;83.89
60427;BME280;46274;47.168;27.604;2022-12-11T23:09:49;98368.63;;;-0.29;84.07
60427;BME280;46274;47.168;27.604;2022-12-11T23:15:53;98400.78;;;-0.13;84.44
60427;BME280;46274;47.168;27.604;2022-12-11T23:21:55;98399.63;;;-0.10;84.46
60427;BME280;46274;47.168;27.604;2022-12-11T23:28:01;98439.47;;;0.27;84.35
60427;BME280;46274;47.168;27.604;2022-12-11T23:34:16;98440.66;;;0.15;84.93
60427;BME280;46274;47.168;27.604;2022-12-11T23:40:18;98450.19;;;0.35;84.24
60427;BME280;46274;47.168;27.604;2022-12-11T23:46:22;98402.53;;;0.14;83.97
60427;BME280;46274;47.168;27.604;2022-12-11T23:52:26;98486.78;;;0.33;84.33
60427;BME280;46274;47.168;27.604;2022-12-11T23:58:28;98461.91;;;0.42;83.86
